Time;durP1;ratioP1;P1;durP2;ratioP2;P2;SDS_P1;SDS_P2;PMS_P1;PMS_P2;Temp;Humidity;BMP_temperature;BMP_pressure;BME280_temperature;BME280_humidity;BME280_pressure;Samples;Min_cycle;Max_cycle;Signal;HPM_P1;HPM_P2
2022/05/15 00:00:38;;;;;;;13.18;6.00;;;;;;;14.30;87.09;98452.52;1701648;80;28070;-86
2022/05/15 00:03:15;;;;;;;13.98;6.28;;;;;;;14.27;87.38;98454.11;1737176;80;28082;-84
2022/05/15 00:05:42;;;;;;;12.18;6.62;;;;;;;14.25;87.68;98454.23;1733991;80;28098;-84
2022/05/15 00:08:09;;;;;;;13.32;6.12;;;;;;;14.27;87.98;98454.59;1735652;82;28157;-85
2022/05/15 00:10:37;;;;;;;10.43;5.67;;;;;;;14.23;88.22;98451.39;1718391;82;28098;-83
2022/05/15 00:13:05;;;;;;;13.30;6.53;;;;;;;14.19;88.45;98454.74;1730717;82;28137;-83
2022/05/15 00:15:33;;;;;;;10.82;5.75;;;;;;;14.14;88.66;98459.56;1736296;80;28088;-83
2022/05/15 00:17:59;;;;;;;9.45;5.85;;;;;;;14.14;88.93;98460.05;1733650;80;28027;-83
2022/05/15 00:20:26;;;;;;;12.07;6.05;;;;;;;14.14;89.17;98463.98;1734084;81;28184;-84
2022/05/15 00:22:52;;;;;;;13.65;6.22;;;;;;;14.13;89.38;98468.89;1726052;80;28078;-82
2022/05/15 00:25:18;;;;;;;8.78;5.60;;;;;;;14.12;89.56;98466.77;1754500;80;28094;-86
2022/05/15 00:27:44;;;;;;;13.18;5.58;;;;;;;14.11;89.72;98465.58;1763383;80;28098;-83
2022/05/15 00:30:19;;;;;;;13.68;6.45;;;;;;;14.11;89.88;98466.41;1756431;80;28071;-82
2022/05/15 00:32:45;;;;;;;8.53;5.78;;;;;;;14.08;90.03;98467.97;1767790;80;28125;-86
2022/05/15 00:35:11;;;;;;;6.67;5.10;;;;;;;14.00;90.14;98464.32;1750944;80;28084;-83
2022/05/15 00:37:37;;;;;;;11.12;6.00;;;;;;;13.94;90.27;98466.14;1759096;80;47479;-83
2022/05/15 00:40:07;;;;;;;6.67;5.62;;;;;;;13.91;90.47;98461.95;1755449;80;28010;-82
2022/05/15 00:42:34;;;;;;;9.43;5.83;;;;;;;13.88;90.69;98456.96;1759303;80;28092;-86
2022/05/15 00:45:00;;;;;;;9.18;5.35;;;;;;;13.81;90.89;98458.42;1759688;79;28075;-83
2022/05/15 00:47:26;;;;;;;10.75;6.30;;;;;;;13.74;91.06;98462.06;1753821;80;28082;-87
2022/05/15 00:49:54;;;;;;;8.05;5.03;;;;;;;13.70;91.30;98461.09;1754891;79;28094;-86
2022/05/15 00:52:23;;;;;;;12.47;5.40;;;;;;;13.69;91.55;98459.45;1763586;80;28082;-86
2022/05/15 00:54:53;;;;;;;9.03;5.15;;;;;;;13.64;91.79;98459.80;1762151;80;28028;-82
2022/05/15 00:57:26;;;;;;;9.03;5.40;;;;;;;13.67;92.08;98459.57;1760021;79;28048;-86
2022/05/15 01:00:11;;;;;;;11.55;5.62;;;;;;;13.71;92.39;98462.77;1756388;78;28085;-83
2022/05/15 01:02:46;;;;;;;9.48;5.22;;;;;;;13.68;92.57;98458.61;1756713;79;28089;-86
2022/05/15 01:05:14;;;;;;;10.30;5.35;;;;;;;13.70;92.75;98459.78;1756747;80;28080;-83
2022/05/15 01:07:40;;;;;;;9.55;5.45;;;;;;;13.65;92.83;98458.84;1764644;78;28630;-83
2022/05/15 01:10:09;;;;;;;8.58;5.50;;;;;;;13.64;92.92;98462.44;1758543;79;28090;-82
2022/05/15 01:12:38;;;;;;;9.50;5.70;;;;;;;13.62;93.06;98460.91;1767746;80;28143;-83
2022/05/15 01:15:04;;;;;;;13.22;5.83;;;;;;;13.55;93.13;98461.87;1755432;80;28129;-82
2022/05/15 01:17:31;;;;;;;9.95;5.47;;;;;;;13.44;93.26;98465.86;1760952;78;28142;-83
2022/05/15 01:20:12;;;;;;;10.15;5.47;;;;;;;13.37;93.46;98463.36;1759573;79;28126;-86
2022/05/15 01:22:38;;;;;;;7.57;5.33;;;;;;;13.34;93.66;98463.63;1761176;80;27992;-83
2022/05/15 01:25:08;;;;;;;9.58;5.50;;;;;;;13.28;93.82;98470.68;1761886;79;43353;-83
2022/05/15 01:27:35;;;;;;;6.10;3.73;;;;;;;13.21;93.92;98469.02;1759996;80;32527;-86
2022/05/15 01:30:01;;;;;;;13.53;5.90;;;;;;;13.10;94.07;98475.57;1759839;78;28054;-82
2022/05/15 01:32:33;;;;;;;10.20;5.70;;;;;;;13.07;94.30;98467.11;1757188;78;28142;-82
2022/05/15 01:34:59;;;;;;;10.10;5.42;;;;;;;13.07;94.60;98476.30;1758769;79;28015;-83
2022/05/15 01:37:25;;;;;;;9.40;5.35;;;;;;;13.00;94.77;98478.09;1759615;78;28156;-86
2022/05/15 01:39:52;;;;;;;13.38;5.95;;;;;;;13.05;95.01;98478.20;1759676;80;43594;-83
2022/05/15 01:42:18;;;;;;;11.00;5.40;;;;;;;13.00;95.12;98482.52;1758156;79;28052;-82
2022/05/15 01:44:45;;;;;;;11.63;5.97;;;;;;;13.02;95.38;98482.41;1761384;79;45747;-84
2022/05/15 01:47:11;;;;;;;10.68;6.15;;;;;;;12.96;95.48;98481.94;1761461;79;28071;-83
2022/05/15 01:49:38;;;;;;;10.82;5.47;;;;;;;12.98;95.68;98487.08;1755217;80;28153;-86
2022/05/15 01:52:05;;;;;;;9.80;5.53;;;;;;;12.96;95.83;98487.19;1754449;79;28726;-86
2022/05/15 01:54:34;;;;;;;9.00;5.40;;;;;;;12.81;95.94;98485.77;1766228;78;28098;-83
2022/05/15 01:57:00;;;;;;;11.78;5.22;;;;;;;12.75;96.06;98490.18;1763821;80;28158;-82
2022/05/15 01:59:26;;;;;;;;;;;;;;;12.85;96.36;98490.30;1769417;80;28071;-83
2022/05/15 02:01:52;;;;;;;7.12;5.12;;;;;;;12.89;96.51;98487.77;1761173;79;43066;-82
2022/05/15 02:04:18;;;;;;;8.50;5.30;;;;;;;12.95;96.63;98489.92;1759382;79;43083;-85
2022/05/15 02:06:45;;;;;;;10.35;5.78;;;;;;;13.04;96.79;98491.02;1753610;80;28185;-83
2022/05/15 02:09:10;;;;;;;10.68;5.83;;;;;;;12.94;96.76;98489.56;1761926;79;28032;-83
2022/05/15 02:11:38;;;;;;;13.15;5.33;;;;;;;12.91;96.88;98489.81;1761901;79;48296;-82
2022/05/15 02:14:05;;;;;;;9.70;5.62;;;;;;;12.98;97.13;98489.20;1756743;78;28143;-82
2022/05/15 02:16:31;;;;;;;8.95;6.05;;;;;;;13.00;97.20;98489.92;1756780;79;27990;-86
2022/05/15 02:18:58;;;;;;;9.03;6.20;;;;;;;12.97;97.31;98491.97;1759151;80;28103;-86
2022/05/15 02:21:24;;;;;;;11.08;6.80;;;;;;;12.91;97.39;98490.66;1753240;80;28022;-84
2022/05/15 02:23:50;;;;;;;14.33;6.47;;;;;;;12.89;97.54;98492.55;1766004;80;45432;-86
2022/05/15 02:26:17;;;;;;;9.80;6.62;;;;;;;12.87;97.71;98489.70;1757733;79;28044;-83
2022/05/15 02:28:43;;;;;;;11.85;6.55;;;;;;;12.80;97.86;98491.13;1759339;80;28178;-84
2022/05/15 02:31:09;;;;;;;12.58;6.92;;;;;;;12.71;97.97;98499.23;1736752;80;28070;-84
2022/05/15 02:33:36;;;;;;;18.17;7.37;;;;;;;12.62;98.13;98493.86;1762230;80;28110;-84
2022/05/15 02:36:03;;;;;;;14.80;5.85;;;;;;;12.56;98.35;98495.16;1751227;78;28468;-83
2022/05/15 02:38:29;;;;;;;11.57;7.22;;;;;;;12.53;98.55;98494.11;1758217;80;28008;-87
2022/05/15 02:40:56;;;;;;;9.58;6.60;;;;;;;12.50;98.79;98496.95;1757827;79;28059;-85
2022/05/15 02:43:22;;;;;;;11.45;6.67;;;;;;;12.46;99.02;98489.80;1767051;79;28067;-87
2022/05/15 02:45:48;;;;;;;10.25;6.83;;;;;;;12.43;99.27;98491.36;1759240;80;28125;-87
2022/05/15 02:51:05;;;;;;;10.72;7.30;;;;;;;12.31;99.52;98502.78;1756851;80;28026;-86
2022/05/15 02:53:36;;;;;;;11.28;6.10;;;;;;;12.18;99.55;98505.11;1756477;79;28157;-86
2022/05/15 02:56:18;;;;;;;8.48;6.25;;;;;;;12.08;99.64;98504.50;1760646;79;28055;-86
2022/05/15 02:58:45;;;;;;;9.65;5.90;;;;;;;12.04;99.81;98503.06;1756955;80;28161;-83
2022/05/15 03:01:11;;;;;;;14.18;6.22;;;;;;;12.05;100.00;98499.97;1754151;80;28084;-83
2022/05/15 03:03:38;;;;;;;12.03;7.12;;;;;;;12.08;100.00;98502.35;1745745;79;28158;-84
2022/05/15 03:06:06;;;;;;;10.10;6.65;;;;;;;12.08;100.00;98499.73;1726746;80;27989;-84
2022/05/15 03:08:39;;;;;;;10.82;6.58;;;;;;;12.07;100.00;98506.76;1732831;80;28089;-86
2022/05/15 03:11:05;;;;;;;9.58;6.42;;;;;;;12.10;100.00;98509.64;1754968;80;28105;-83
2022/05/15 03:13:36;;;;;;;11.45;5.95;;;;;;;12.09;100.00;98506.66;1763614;79;28004;-83
2022/05/15 03:16:04;;;;;;;9.65;5.92;;;;;;;12.13;100.00;98512.86;1757635;80;28096;-82
2022/05/15 03:18:31;;;;;;;9.55;6.33;;;;;;;12.18;100.00;98508.58;1764719;79;27992;-86
2022/05/15 03:20:57;;;;;;;10.25;6.70;;;;;;;12.25;100.00;98502.40;1757879;79;28034;-86
2022/05/15 03:23:23;;;;;;;8.25;6.00;;;;;;;12.24;100.00;98511.22;1748260;80;28150;-83
2022/05/15 03:25:50;;;;;;;12.63;5.75;;;;;;;12.18;100.00;98509.89;1731704;80;28131;-82
2022/05/15 03:28:16;;;;;;;10.98;6.67;;;;;;;12.20;100.00;98509.78;1743276;80;28116;-82
2022/05/15 03:30:44;;;;;;;9.60;6.33;;;;;;;12.24;100.00;98510.74;1733955;80;28203;-84
2022/05/15 03:33:12;;;;;;;11.15;6.10;;;;;;;12.23;100.00;98516.09;1739984;80;28185;-83
2022/05/15 03:35:39;;;;;;;8.68;5.78;;;;;;;12.15;100.00;98516.69;1739425;80;28072;-84
2022/05/15 03:38:08;;;;;;;12.33;6.00;;;;;;;12.12;100.00;98516.91;1745419;80;28144;-84
2022/05/15 03:40:34;;;;;;;10.70;6.08;;;;;;;12.10;100.00;98517.52;1734897;80;28072;-81
2022/05/15 03:43:01;;;;;;;7.58;5.67;;;;;;;12.05;100.00;98520.48;1732763;80;28063;-86
2022/05/15 03:45:28;;;;;;;10.10;6.53;;;;;;;12.05;100.00;98511.78;1719887;80;28135;-83
2022/05/15 03:47:55;;;;;;;8.73;5.78;;;;;;;12.07;100.00;98514.63;1741648;80;28105;-86
2022/05/15 03:50:25;;;;;;;12.03;6.30;;;;;;;12.11;100.00;98520.47;1739133;80;28165;-82
2022/05/15 03:52:51;;;;;;;13.15;6.30;;;;;;;12.14;100.00;98525.03;1683472;82;28144;-82
2022/05/15 03:55:18;;;;;;;10.40;5.90;;;;;;;12.09;100.00;98517.15;1657560;85;28116;-83
2022/05/15 03:57:45;;;;;;;11.05;7.00;;;;;;;12.08;100.00;98523.34;1694786;82;28239;-81
2022/05/15 04:00:15;;;;;;;8.98;6.35;;;;;;;12.03;100.00;98528.09;1671511;84;28082;-87
2022/05/15 04:02:42;;;;;;;8.58;6.00;;;;;;;11.99;100.00;98529.28;1739274;80;28124;-87
2022/05/15 04:05:10;;;;;;;12.58;6.90;;;;;;;12.00;100.00;98531.77;1739889;80;28094;-87
2022/05/15 04:07:45;;;;;;;10.78;6.90;;;;;;;12.02;100.00;98532.50;1726809;80;28056;-83
2022/05/15 04:10:13;;;;;;;11.65;6.10;;;;;;;12.05;100.00;98536.70;1731017;80;28074;-86
2022/05/15 04:12:39;;;;;;;12.20;6.42;;;;;;;12.16;100.00;98538.86;1741038;80;28060;-84
2022/05/15 04:15:15;;;;;;;11.97;6.70;;;;;;;12.33;100.00;98540.22;1717589;80;28168;-83
2022/05/15 04:17:44;;;;;;;11.28;6.12;;;;;;;12.49;100.00;98542.55;1722427;81;28102;-83
2022/05/15 04:20:14;;;;;;;10.08;6.45;;;;;;;12.61;100.00;98548.16;1734653;80;28084;-83
2022/05/15 04:22:41;;;;;;;10.55;6.40;;;;;;;12.72;100.00;98547.33;1734714;80;28085;-82
2022/05/15 04:25:13;;;;;;;11.65;6.70;;;;;;;12.82;100.00;98539.94;1750322;80;28091;-83
2022/05/15 04:27:41;;;;;;;8.85;5.62;;;;;;;12.90;100.00;98541.98;1760958;79;28152;-82
2022/05/15 04:30:16;;;;;;;10.88;6.03;;;;;;;12.94;100.00;98545.56;1766087;78;28654;-86
2022/05/15 04:32:44;;;;;;;12.20;6.15;;;;;;;12.95;100.00;98552.97;1738838;80;28065;-84
2022/05/15 04:35:20;;;;;;;8.95;6.10;;;;;;;12.94;100.00;98560.48;1767111;79;28140;-84
2022/05/15 04:37:46;;;;;;;9.15;6.17;;;;;;;12.96;100.00;98566.47;1761737;80;28124;-84
2022/05/15 04:40:13;;;;;;;11.28;6.62;;;;;;;12.94;100.00;98583.66;1761025;79;28088;-87
2022/05/15 04:42:40;;;;;;;12.50;6.78;;;;;;;12.95;100.00;98585.33;1754570;80;28431;-84
2022/05/15 04:45:08;;;;;;;10.93;5.65;;;;;;;13.05;100.00;98584.14;1698834;82;28113;-84
2022/05/15 04:47:46;;;;;;;9.00;5.67;;;;;;;13.19;100.00;98589.21;1697476;83;28084;-87
2022/05/15 04:50:13;;;;;;;11.33;6.72;;;;;;;13.33;100.00;98584.17;1689722;83;28114;-84
2022/05/15 04:52:39;;;;;;;9.08;6.25;;;;;;;13.45;100.00;98582.38;1723812;81;28092;-84
2022/05/15 04:55:06;;;;;;;8.58;5.67;;;;;;;13.54;100.00;98578.53;1719939;80;28110;-83
2022/05/15 04:57:33;;;;;;;13.00;7.03;;;;;;;13.62;100.00;98583.19;1718775;80;27994;-82
2022/05/15 04:59:59;;;;;;;10.75;6.75;;;;;;;13.77;100.00;98585.42;1720776;80;28108;-82
2022/05/15 05:02:25;;;;;;;10.23;6.65;;;;;;;13.91;100.00;98581.66;1760096;80;28496;-84
2022/05/15 05:04:51;;;;;;;10.78;6.10;;;;;;;14.02;100.00;98584.77;1761473;79;43594;-85
2022/05/15 05:07:17;;;;;;;9.73;5.80;;;;;;;14.09;100.00;98581.97;1765144;79;28152;-84
2022/05/15 05:09:43;;;;;;;9.35;5.75;;;;;;;14.20;100.00;98581.92;1767353;79;45846;-83
2022/05/15 05:12:15;;;;;;;9.88;5.65;;;;;;;14.31;100.00;98588.46;1766154;78;28158;-83
2022/05/15 05:14:41;;;;;;;9.73;5.05;;;;;;;14.42;100.00;98584.97;1764282;80;28149;-83
2022/05/15 05:17:07;;;;;;;9.48;6.08;;;;;;;14.54;100.00;98591.86;1759859;79;28119;-86
2022/05/15 05:19:33;;;;;;;8.35;5.17;;;;;;;14.62;100.00;98588.08;1760392;80;43061;-86
2022/05/15 05:21:59;;;;;;;7.80;5.15;;;;;;;14.68;100.00;98592.84;1757178;80;28080;-82
2022/05/15 05:24:25;;;;;;;7.60;4.83;;;;;;;14.80;100.00;98597.56;1749060;80;43059;-83
2022/05/15 05:26:52;;;;;;;8.03;5.08;;;;;;;14.86;100.00;98600.52;1735018;80;28078;-82
2022/05/15 05:29:18;;;;;;;6.87;5.15;;;;;;;14.94;100.00;98605.16;1729924;80;28130;-82
2022/05/15 05:31:44;;;;;;;9.40;5.40;;;;;;;14.99;100.00;98597.69;1740317;80;28154;-83
2022/05/15 05:34:10;;;;;;;10.03;4.97;;;;;;;15.05;100.00;98599.30;1733379;80;27998;-86
2022/05/15 05:36:36;;;;;;;7.67;4.90;;;;;;;15.12;100.00;98602.25;1735848;80;28152;-83
2022/05/15 05:39:02;;;;;;;8.35;5.08;;;;;;;15.16;100.00;98601.52;1742357;80;28046;-85
2022/05/15 05:41:28;;;;;;;8.13;5.12;;;;;;;15.23;100.00;98603.48;1733812;80;28156;-85
2022/05/15 05:43:55;;;;;;;10.48;5.17;;;;;;;15.27;100.00;98603.59;1731358;80;28101;-86
2022/05/15 05:46:21;;;;;;;8.25;5.33;;;;;;;15.35;100.00;98601.59;1746395;80;28154;-83
2022/05/15 05:48:48;;;;;;;12.63;5.00;;;;;;;15.38;100.00;98605.30;1732178;80;28062;-82
2022/05/15 05:51:17;;;;;;;14.40;5.25;;;;;;;15.40;100.00;98600.22;1732570;80;28179;-83
2022/05/15 05:53:43;;;;;;;10.23;5.35;;;;;;;15.43;100.00;98603.09;1732645;81;28157;-85
2022/05/15 05:56:09;;;;;;;8.70;5.08;;;;;;;15.47;100.00;98607.13;1731655;80;28506;-86
2022/05/15 05:58:36;;;;;;;11.38;5.20;;;;;;;15.49;100.00;98612.60;1701355;81;28106;-85
2022/05/15 06:01:04;;;;;;;9.28;5.45;;;;;;;15.55;100.00;98616.54;1699043;80;28128;-84
2022/05/15 06:06:17;;;;;;;13.85;5.28;;;;;;;15.69;100.00;98616.67;1731052;80;28071;-84
2022/05/15 06:08:44;;;;;;;8.38;5.17;;;;;;;15.62;100.00;98623.44;1725117;80;28026;-82
2022/05/15 06:11:12;;;;;;;6.80;4.72;;;;;;;15.61;100.00;98623.92;1722582;81;28068;-82
2022/05/15 06:13:39;;;;;;;8.98;5.17;;;;;;;15.62;100.00;98626.92;1719241;81;28076;-82
2022/05/15 06:16:15;;;;;;;7.72;5.15;;;;;;;15.63;100.00;98625.95;1696674;83;28139;-83
2022/05/15 06:18:41;;;;;;;11.05;6.15;;;;;;;15.62;100.00;98631.36;1672187;83;28150;-82
2022/05/15 06:21:08;;;;;;;7.35;5.10;;;;;;;15.63;100.00;98631.72;1651367;85;28073;-86
2022/05/15 06:23:33;;;;;;;8.75;5.65;;;;;;;15.62;100.00;98635.31;1655068;83;28118;-83
2022/05/15 06:25:59;;;;;;;9.90;5.65;;;;;;;15.65;100.00;98629.79;1701030;82;28148;-83
2022/05/15 06:28:26;;;;;;;11.35;5.72;;;;;;;15.67;100.00;98630.47;1698141;83;47468;-83
2022/05/15 06:30:52;;;;;;;12.98;5.75;;;;;;;15.74;100.00;98625.02;1703483;82;28012;-87
2022/05/15 06:33:19;;;;;;;10.88;6.17;;;;;;;15.78;100.00;98629.05;1700187;83;28166;-87
2022/05/15 06:35:44;;;;;;;10.75;5.90;;;;;;;15.80;100.00;98625.80;1705477;81;48506;-87
2022/05/15 06:38:11;;;;;;;10.88;6.17;;;;;;;15.82;99.74;98632.59;1678971;83;28097;-87
2022/05/15 06:40:36;;;;;;;10.72;5.90;;;;;;;15.89;99.44;98632.41;1673394;83;28175;-82
2022/05/15 06:43:03;;;;;;;13.60;5.65;;;;;;;15.94;99.23;98634.64;1703874;82;28132;-83
2022/05/15 06:45:29;;;;;;;11.05;5.95;;;;;;;15.97;99.05;98640.98;1750645;80;28157;-82
2022/05/15 06:47:55;;;;;;;13.38;6.20;;;;;;;16.01;98.80;98643.69;1754419;80;28129;-86
2022/05/15 06:50:21;;;;;;;13.35;6.22;;;;;;;16.07;98.71;98647.11;1745673;80;28044;-83
2022/05/15 06:52:47;;;;;;;11.57;5.30;;;;;;;16.18;98.78;98644.83;1759315;79;28178;-83
2022/05/15 06:55:17;;;;;;;12.68;5.80;;;;;;;16.24;98.64;98639.01;1762337;80;27985;-83
2022/05/15 06:57:47;;;;;;;9.50;5.78;;;;;;;16.28;98.54;98639.08;1753661;80;28006;-82
2022/05/15 07:00:20;;;;;;;10.70;5.17;;;;;;;16.37;98.46;98644.84;1761371;80;28145;-82
2022/05/15 07:02:49;;;;;;;12.85;5.17;;;;;;;16.43;98.49;98639.48;1758212;80;28097;-85
2022/05/15 07:05:19;;;;;;;11.80;4.80;;;;;;;16.41;98.05;98641.45;1753110;80;28117;-84
2022/05/15 07:07:51;;;;;;;9.05;4.58;;;;;;;16.43;97.75;98644.77;1759706;80;28093;-84
2022/05/15 07:10:17;;;;;;;8.55;4.87;;;;;;;16.50;97.59;98640.61;1756665;80;28113;-86
2022/05/15 07:12:43;;;;;;;11.78;3.72;;;;;;;16.61;97.37;98649.27;1760582;78;28096;-83
2022/05/15 07:15:09;;;;;;;10.70;5.47;;;;;;;16.62;96.96;98646.98;1757217;80;28062;-87
2022/05/15 07:17:36;;;;;;;11.28;5.20;;;;;;;16.63;96.49;98649.14;1758056;80;28121;-83
2022/05/15 07:20:04;;;;;;;8.68;4.67;;;;;;;16.67;96.29;98650.03;1747184;80;28098;-82
2022/05/15 07:22:30;;;;;;;13.30;5.05;;;;;;;16.76;96.25;98649.66;1760418;80;28067;-85
2022/05/15 07:25:00;;;;;;;11.55;4.47;;;;;;;16.84;96.12;98646.33;1759178;80;27987;-84
2022/05/15 07:27:26;;;;;;;10.48;4.83;;;;;;;16.92;96.02;98651.24;1763351;79;28109;-85
2022/05/15 07:29:52;;;;;;;13.30;5.15;;;;;;;16.97;95.73;98652.97;1761749;80;28056;-83
2022/05/15 07:32:18;;;;;;;11.45;4.87;;;;;;;16.96;95.32;98655.78;1763569;79;28134;-84
2022/05/15 07:34:44;;;;;;;10.40;5.85;;;;;;;16.99;95.09;98655.00;1758186;80;27983;-83
2022/05/15 07:37:12;;;;;;;8.98;5.42;;;;;;;17.05;95.03;98658.40;1759956;80;28000;-84
2022/05/15 07:39:38;;;;;;;11.10;5.87;;;;;;;17.15;94.88;98654.41;1751119;80;28157;-84
2022/05/15 07:42:09;;;;;;;14.83;5.78;;;;;;;17.23;94.47;98663.80;1760864;80;28083;-85
2022/05/15 07:44:35;;;;;;;9.40;5.30;;;;;;;17.27;94.15;98666.98;1756976;79;28128;-83
2022/05/15 07:47:01;;;;;;;12.88;5.53;;;;;;;17.38;93.96;98668.13;1749954;80;28089;-84
2022/05/15 07:49:27;;;;;;;7.90;4.72;;;;;;;17.44;93.71;98667.07;1756166;79;28122;-83
2022/05/15 07:51:53;;;;;;;8.35;5.50;;;;;;;17.50;93.38;98663.02;1758718;80;28023;-84
2022/05/15 07:54:20;;;;;;;9.98;5.50;;;;;;;17.59;93.21;98663.45;1760153;79;28083;-84
2022/05/15 07:56:46;;;;;;;10.53;5.03;;;;;;;17.60;92.84;98662.52;1758646;80;28126;-87
2022/05/15 07:59:13;;;;;;;9.03;5.03;;;;;;;17.65;92.61;98664.23;1752078;78;28074;-84
2022/05/15 08:01:41;;;;;;;9.38;4.37;;;;;;;17.72;92.53;98669.30;1759213;80;28217;-83
2022/05/15 08:04:08;;;;;;;7.12;4.83;;;;;;;17.79;92.28;98666.87;1751900;80;28140;-84
2022/05/15 08:09:19;;;;;;;7.03;4.25;;;;;;;17.76;91.11;98670.66;1756684;80;28149;-87
2022/05/15 08:11:45;;;;;;;7.05;4.45;;;;;;;17.81;90.78;98668.41;1757232;80;28215;-87
2022/05/15 08:14:12;;;;;;;8.23;3.70;;;;;;;17.83;90.21;98672.24;1753332;80;28145;-84
2022/05/15 08:16:39;;;;;;;7.17;3.40;;;;;;;17.86;89.88;98675.42;1756001;79;28164;-87
2022/05/15 08:24:37;;;;;;;11.12;4.67;;;;;;;17.97;88.64;98663.79;1761623;80;28280;-83
2022/05/15 08:27:05;;;;;;;7.25;3.85;;;;;;;18.03;88.41;98661.04;1764242;80;28161;-83
2022/05/15 08:29:31;;;;;;;7.62;4.30;;;;;;;18.07;87.84;98662.41;1760574;80;28107;-83
2022/05/15 08:31:57;;;;;;;10.88;4.47;;;;;;;18.06;87.30;98654.11;1769208;79;28160;-83
2022/05/15 08:34:27;;;;;;;10.55;4.28;;;;;;;18.17;87.23;98652.09;1754639;79;28149;-83
2022/05/15 08:36:55;;;;;;;8.58;4.12;;;;;;;18.26;87.05;98655.67;1760718;78;28007;-84
2022/05/15 08:39:22;;;;;;;8.00;4.58;;;;;;;18.36;86.82;98661.73;1750239;80;28048;-87
2022/05/15 08:41:51;;;;;;;8.98;5.33;;;;;;;18.43;86.50;98661.48;1756454;80;28172;-83
2022/05/15 08:44:29;;;;;;;10.58;4.87;;;;;;;18.54;86.22;98650.69;1764934;80;28122;-84
2022/05/15 08:47:11;;;;;;;11.53;5.03;;;;;;;18.68;86.07;98651.46;1760778;80;28128;-84
2022/05/15 08:49:43;;;;;;;12.45;4.50;;;;;;;18.76;85.88;98658.67;1748678;80;28112;-83
2022/05/15 08:52:16;;;;;;;13.83;5.08;;;;;;;18.94;86.12;98663.92;1752409;79;28073;-87
2022/05/15 08:54:48;;;;;;;8.73;3.60;;;;;;;18.96;85.55;98659.31;1764407;80;28116;-84
2022/05/15 08:57:18;;;;;;;10.65;4.78;;;;;;;18.90;84.80;98655.94;1753608;80;28082;-84
2022/05/15 08:59:56;;;;;;;10.32;4.40;;;;;;;18.87;84.23;98652.28;1761022;78;28081;-84
2022/05/15 09:02:23;;;;;;;7.58;3.75;;;;;;;18.98;84.15;98656.02;1762309;78;28091;-83
2022/05/15 09:04:54;;;;;;;8.13;3.67;;;;;;;19.10;83.83;98650.78;1759635;80;28061;-84
2022/05/15 09:07:27;;;;;;;8.63;3.62;;;;;;;19.16;83.31;98648.34;1760946;79;28077;-84
2022/05/15 09:10:03;;;;;;;8.48;4.30;;;;;;;19.32;82.99;98646.77;1757090;79;28119;-87
2022/05/15 09:12:32;;;;;;;9.65;3.72;;;;;;;19.50;82.84;98650.23;1760044;79;28174;-87
2022/05/15 09:15:01;;;;;;;7.20;3.70;;;;;;;19.62;82.82;98649.81;1749409;79;28191;-87
2022/05/15 09:17:47;;;;;;;6.30;3.50;;;;;;;19.69;82.08;98653.16;1751028;80;28134;-83
2022/05/15 09:20:26;;;;;;;6.42;2.80;;;;;;;19.79;81.59;98650.71;1756205;80;28074;-87
2022/05/15 09:23:11;;;;;;;9.83;3.50;;;;;;;19.91;81.03;98648.60;1761168;80;28192;-88
2022/05/15 09:25:37;;;;;;;6.40;2.52;;;;;;;20.02;80.65;98649.61;1732093;80;28107;-86
2022/05/15 09:28:07;;;;;;;6.75;2.30;;;;;;;20.20;80.02;98652.98;1761094;79;28144;-85
2022/05/15 09:30:39;;;;;;;8.53;2.15;;;;;;;20.36;79.62;98652.22;1757421;80;28200;-85
2022/05/15 09:33:23;;;;;;;10.32;2.20;;;;;;;20.44;78.65;98650.92;1755040;80;28099;-85
2022/05/15 09:35:49;;;;;;;6.80;1.90;;;;;;;20.43;77.30;98662.05;1758126;80;28127;-85
2022/05/15 09:38:29;;;;;;;5.53;1.98;;;;;;;20.41;75.94;98658.71;1754575;80;28106;-84
2022/05/15 09:44:00;;;;;;;7.53;2.52;;;;;;;20.57;73.65;98656.56;1757052;80;28051;-85
2022/05/15 09:46:30;;;;;;;7.35;2.50;;;;;;;20.57;72.61;98649.92;1767732;80;28079;-84
2022/05/15 09:49:00;;;;;;;8.50;2.67;;;;;;;20.66;71.96;98653.44;1753228;80;28071;-85
2022/05/15 09:51:48;;;;;;;7.47;2.75;;;;;;;20.70;71.37;98652.09;1752903;80;28083;-87
2022/05/15 09:54:29;;;;;;;5.53;2.22;;;;;;;20.77;71.01;98653.11;1755701;79;28159;-88
2022/05/15 09:57:25;;;;;;;7.50;2.45;;;;;;;20.69;70.14;98663.73;1722641;80;28114;-85
2022/05/15 10:00:00;;;;;;;5.87;2.15;;;;;;;20.50;69.26;98654.25;1763129;80;28098;-85
2022/05/15 10:02:47;;;;;;;5.30;2.30;;;;;;;20.44;68.86;98656.23;1760316;80;28095;-85
2022/05/15 10:05:28;;;;;;;5.60;2.00;;;;;;;20.49;68.69;98657.91;1762258;78;28056;-84
2022/05/15 10:08:09;;;;;;;6.37;2.35;;;;;;;20.59;68.59;98656.41;1752556;80;28146;-84
2022/05/15 10:10:37;;;;;;;9.03;2.77;;;;;;;20.65;67.97;98648.61;1760965;78;28037;-84
2022/05/15 10:13:13;;;;;;;4.78;2.10;;;;;;;20.76;67.60;98654.94;1730200;79;28530;-84
2022/05/15 10:15:46;;;;;;;7.97;2.47;;;;;;;20.83;67.11;98657.27;1734761;81;28078;-84
2022/05/15 10:18:15;;;;;;;7.87;2.27;;;;;;;20.88;66.71;98656.27;1762560;80;28058;-85
2022/05/15 10:20:45;;;;;;;7.28;1.80;;;;;;;20.96;66.34;98663.40;1757780;80;27994;-85
2022/05/15 10:23:15;;;;;;;8.45;1.95;;;;;;;21.05;66.24;98656.26;1745302;80;28095;-85
2022/05/15 10:25:51;;;;;;;3.75;2.30;;;;;;;21.14;65.63;98652.11;1755512;79;28090;-84
2022/05/15 10:28:38;;;;;;;5.28;1.80;;;;;;;21.24;64.66;98649.27;1764544;79;28194;-85
2022/05/15 10:31:25;;;;;;;4.60;1.67;;;;;;;21.25;63.98;98650.44;1763205;80;28011;-84
2022/05/15 10:33:58;;;;;;;7.05;1.82;;;;;;;21.32;63.57;98651.09;1764113;80;28156;-84
2022/05/15 10:36:28;;;;;;;6.30;1.87;;;;;;;21.42;63.20;98649.06;1751079;78;28404;-84
2022/05/15 10:39:04;;;;;;;4.45;2.17;;;;;;;21.48;62.48;98644.39;1747577;80;28002;-84
2022/05/15 10:42:07;;;;;;;8.15;2.10;;;;;;;21.52;61.50;98647.04;1752986;80;28027;-84
2022/05/15 10:45:15;;;;;;;3.02;1.50;;;;;;;21.57;60.76;98651.34;1760806;80;28082;-84
2022/05/15 10:48:02;;;;;;;5.37;1.98;;;;;;;21.56;60.19;98643.86;1752650;80;28597;-84
2022/05/15 10:50:43;;;;;;;7.00;2.30;;;;;;;21.57;60.12;98645.52;1755972;79;28163;-84
2022/05/15 10:59:23;;;;;;;4.42;2.02;;;;;;;21.44;57.89;98636.42;1750412;80;27998;-83
2022/05/15 11:02:10;;;;;;;7.00;1.90;;;;;;;21.48;57.61;98633.74;1753299;80;28177;-83
2022/05/15 11:04:56;;;;;;;4.22;1.98;;;;;;;21.53;57.51;98639.38;1755582;80;28165;-83
2022/05/15 11:07:35;;;;;;;5.10;1.92;;;;;;;21.60;57.41;98636.37;1750973;79;28139;-88
2022/05/15 11:10:26;;;;;;;6.83;2.02;;;;;;;21.63;56.94;98637.34;1759055;80;28024;-88
2022/05/15 11:13:14;;;;;;;4.03;1.70;;;;;;;21.66;56.43;98633.83;1759155;80;28109;-88
2022/05/15 11:15:57;;;;;;;5.90;2.15;;;;;;;21.71;55.74;98639.47;1753655;80;28077;-83
2022/05/15 11:18:32;;;;;;;4.92;1.75;;;;;;;21.81;55.61;98625.96;1753564;80;28061;-84
2022/05/15 11:21:03;;;;;;;5.08;2.12;;;;;;;21.91;55.57;98624.41;1760425;80;28066;-87
2022/05/15 11:23:36;;;;;;;5.65;1.62;;;;;;;21.87;54.71;98622.61;1754693;80;28082;-85
2022/05/15 11:26:21;;;;;;;5.22;2.10;;;;;;;21.83;53.77;98623.94;1749385;80;28110;-87
2022/05/15 11:28:54;;;;;;;4.90;1.70;;;;;;;21.77;53.04;98613.97;1725025;80;28070;-88
2022/05/15 11:31:32;;;;;;;6.08;1.98;;;;;;;21.69;52.54;98619.34;1744223;81;28157;-83
2022/05/15 11:34:04;;;;;;;4.72;1.40;;;;;;;21.59;52.02;98618.23;1745307;80;28093;-88
2022/05/15 11:36:46;;;;;;;7.58;1.45;;;;;;;21.59;51.69;98620.05;1740884;81;28091;-84
2022/05/15 11:39:24;;;;;;;5.62;1.90;;;;;;;21.69;51.45;98614.85;1740249;79;28153;-85
2022/05/15 11:42:10;;;;;;;3.90;1.67;;;;;;;21.77;51.15;98607.80;1753102;79;28159;-83
2022/05/15 11:44:43;;;;;;;6.33;1.42;;;;;;;21.94;51.43;98602.73;1742155;79;28052;-83
2022/05/15 11:47:19;;;;;;;4.85;1.60;;;;;;;21.99;51.25;98603.06;1742356;79;28073;-84
2022/05/15 11:50:10;;;;;;;3.95;1.40;;;;;;;22.00;50.91;98606.89;1745623;81;28090;-83
2022/05/15 11:52:43;;;;;;;4.85;1.60;;;;;;;22.00;50.53;98602.90;1738947;81;28162;-87
2022/05/15 11:55:38;;;;;;;3.62;1.50;;;;;;;21.94;49.79;98618.25;1742695;81;28132;-87
2022/05/15 11:58:20;;;;;;;6.10;1.95;;;;;;;21.99;49.55;98611.89;1762714;79;28064;-85
2022/05/15 12:01:04;;;;;;;6.03;1.60;;;;;;;22.07;49.21;98604.36;1745942;81;28158;-88
2022/05/15 12:03:46;;;;;;;3.17;1.35;;;;;;;22.18;49.18;98603.97;1750126;80;28127;-88